Time;durP1;ratioP1;P1;durP2;ratioP2;P2;SDS_P1;SDS_P2;PMS_P1;PMS_P2;Temp;Humidity;BMP_temperature;BMP_pressure;BME280_temperature;BME280_humidity;BME280_pressure;Samples;Min_cycle;Max_cycle;Signal;HPM_P1;HPM_P2
2023/04/11 00:00:08;;;;;;;55.03;6.80;;;9.30;99.90;;;;;;4946330;28;39447;-79
2023/04/11 00:02:37;;;;;;;42.87;5.37;;;9.20;99.90;;;;;;4923444;28;37987;-79
2023/04/11 00:05:05;;;;;;;48.57;7.17;;;9.30;99.90;;;;;;4934807;28;37758;-79
2023/04/11 00:07:32;;;;;;;51.23;8.07;;;9.30;99.90;;;;;;4923297;28;47133;-79
2023/04/11 00:09:58;;;;;;;43.43;5.60;;;9.20;99.90;;;;;;4951417;28;38649;-80
2023/04/11 00:12:24;;;;;;;35.73;6.07;;;9.30;99.90;;;;;;4939827;28;37894;-79
2023/04/11 00:14:52;;;;;;;39.17;5.93;;;9.30;99.90;;;;;;4936191;28;38440;-80
2023/04/11 00:17:19;;;;;;;46.87;6.60;;;9.30;99.90;;;;;;4938692;28;36145;-80
2023/04/11 00:19:45;;;;;;;41.97;6.07;;;9.40;99.90;;;;;;4940688;28;37762;-79
2023/04/11 00:22:16;;;;;;;44.87;4.70;;;9.30;99.90;;;;;;4947612;28;38353;-80
2023/04/11 00:24:43;;;;;;;35.83;5.70;;;9.30;99.90;;;;;;4935905;28;37601;-79
2023/04/11 00:27:10;;;;;;;32.40;4.67;;;9.30;99.90;;;;;;4936414;28;36228;-80
2023/04/11 00:29:36;;;;;;;34.17;4.87;;;9.40;99.90;;;;;;4956846;28;38003;-78
2023/04/11 00:32:02;;;;;;;37.20;5.07;;;9.30;99.90;;;;;;4945063;28;38499;-79
2023/04/11 00:34:30;;;;;;;30.03;5.47;;;9.30;99.90;;;;;;4945377;28;37693;-79
2023/04/11 00:36:56;;;;;;;34.20;4.40;;;9.30;99.90;;;;;;4937354;28;37807;-80
2023/04/11 00:39:25;;;;;;;32.67;4.87;;;9.30;99.90;;;;;;4936404;28;39140;-79
2023/04/11 00:41:51;;;;;;;31.73;5.40;;;9.30;99.90;;;;;;4961235;28;39035;-79
2023/04/11 00:44:17;;;;;;;24.10;4.70;;;9.40;99.90;;;;;;4958056;28;38296;-79
2023/04/11 00:46:45;;;;;;;21.40;3.77;;;9.40;99.90;;;;;;4956577;28;37269;-80
2023/04/11 00:49:11;;;;;;;35.63;4.43;;;9.40;99.90;;;;;;4934046;28;38869;-79
2023/04/11 00:51:37;;;;;;;31.63;3.90;;;9.40;99.90;;;;;;4929954;28;37767;-79
2023/04/11 00:54:03;;;;;;;29.83;4.67;;;9.50;99.90;;;;;;4942070;28;37371;-80
2023/04/11 00:56:30;;;;;;;19.63;3.40;;;9.50;99.90;;;;;;4954625;28;37472;-80
2023/04/11 00:58:56;;;;;;;28.93;4.33;;;9.40;99.90;;;;;;4934412;28;38101;-79
2023/04/11 01:03:52;;;;;;;26.70;4.90;;;9.50;99.90;;;;;;4891069;29;20647;-79
2023/04/11 01:06:19;;;;;;;19.70;3.53;;;9.50;99.90;;;;;;4896873;29;37862;-78
2023/04/11 01:08:46;;;;;;;24.87;3.93;;;9.60;99.90;;;;;;4895943;29;38627;-79
2023/04/11 01:11:16;;;;;;;23.70;4.13;;;9.60;99.90;;;;;;4886325;29;38632;-79
2023/04/11 01:13:43;;;;;;;19.63;3.60;;;9.60;99.90;;;;;;4899978;29;37376;-79
2023/04/11 01:16:09;;;;;;;19.20;3.17;;;9.60;99.90;;;;;;4886283;29;36292;-79
2023/04/11 01:18:36;;;;;;;21.53;4.80;;;9.60;99.90;;;;;;4890621;29;39728;-78
2023/04/11 01:21:02;;;;;;;20.17;3.30;;;9.70;99.90;;;;;;4894097;29;37562;-79
2023/04/11 01:23:28;;;;;;;17.60;3.63;;;9.70;99.90;;;;;;4891737;29;37390;-79
2023/04/11 01:25:54;;;;;;;21.67;3.40;;;9.60;99.90;;;;;;4910964;29;36367;-79
2023/04/11 01:28:21;;;;;;;21.73;3.83;;;9.70;99.90;;;;;;4902804;29;38048;-79
2023/04/11 01:30:47;;;;;;;20.00;3.03;;;9.70;99.90;;;;;;4891587;29;38366;-79
2023/04/11 01:33:15;;;;;;;26.57;3.57;;;9.70;99.90;;;;;;4908355;29;37976;-80
2023/04/11 01:35:41;;;;;;;17.30;3.70;;;9.70;99.90;;;;;;4909188;29;38743;-81
2023/04/11 01:38:07;;;;;;;17.60;3.30;;;9.70;99.90;;;;;;4907866;29;38995;-80
2023/04/11 01:40:34;;;;;;;28.87;4.53;;;9.70;99.90;;;;;;4911658;29;41677;-81
2023/04/11 01:43:01;;;;;;;24.83;3.47;;;9.70;99.90;;;;;;4891355;29;37254;-80
2023/04/11 01:45:28;;;;;;;26.80;4.20;;;9.70;99.90;;;;;;4890184;29;47229;-80
2023/04/11 01:47:55;;;;;;;32.57;4.37;;;9.70;99.90;;;;;;4901801;29;38643;-80
2023/04/11 01:50:22;;;;;;;23.83;4.37;;;9.70;99.90;;;;;;4904500;29;39434;-80
2023/04/11 01:52:49;;;;;;;22.43;3.07;;;9.60;99.90;;;;;;4901853;29;37477;-81
2023/04/11 01:55:16;;;;;;;24.70;3.30;;;9.50;99.90;;;;;;4907047;29;38490;-80
2023/04/11 01:57:42;;;;;;;21.90;3.30;;;9.40;99.90;;;;;;4906439;29;39286;-80
2023/04/11 02:00:12;;;;;;;17.73;3.10;;;9.30;99.90;;;;;;4889823;29;37720;-81
2023/04/11 02:02:38;;;;;;;15.30;2.77;;;9.30;99.90;;;;;;4892268;29;37485;-78
2023/04/11 02:05:05;;;;;;;15.43;3.10;;;9.20;99.90;;;;;;4906227;29;36813;-79
2023/04/11 02:07:32;;;;;;;14.90;3.20;;;9.10;99.90;;;;;;4908552;29;38801;-80
2023/04/11 02:09:59;;;;;;;17.80;2.83;;;9.10;99.90;;;;;;4887886;29;38349;-80
2023/04/11 02:12:25;;;;;;;17.70;2.13;;;9.00;99.90;;;;;;4908439;29;38853;-80
2023/04/11 02:14:52;;;;;;;22.97;2.87;;;8.90;99.90;;;;;;4892839;29;38898;-80
2023/04/11 02:17:19;;;;;;;12.93;3.10;;;8.90;99.90;;;;;;4909249;29;38616;-80
2023/04/11 02:19:46;;;;;;;17.07;2.50;;;8.90;99.90;;;;;;4899130;29;38516;-80
2023/04/11 02:22:14;;;;;;;17.63;2.90;;;8.90;99.90;;;;;;4904476;29;37306;-80
2023/04/11 02:24:41;;;;;;;18.33;2.57;;;9.00;99.90;;;;;;4915109;29;35756;-80
2023/04/11 02:27:08;;;;;;;15.07;2.70;;;8.90;99.90;;;;;;4897014;29;38951;-79
2023/04/11 02:29:34;;;;;;;18.30;2.73;;;8.90;99.90;;;;;;4899587;29;37847;-79
2023/04/11 02:32:00;;;;;;;16.17;2.67;;;8.90;99.90;;;;;;4887642;29;37146;-79
2023/04/11 02:34:27;;;;;;;21.07;2.63;;;8.90;99.90;;;;;;4891910;29;36752;-79
2023/04/11 02:36:53;;;;;;;23.20;2.83;;;8.80;99.90;;;;;;4891622;29;37460;-79
2023/04/11 02:39:22;;;;;;;14.40;2.40;;;8.80;99.90;;;;;;4892868;29;37680;-80
2023/04/11 02:41:53;;;;;;;16.73;2.93;;;8.80;99.90;;;;;;4895360;29;38599;-79
2023/04/11 02:44:20;;;;;;;19.13;2.40;;;8.80;99.90;;;;;;4909818;29;37041;-80
2023/04/11 02:46:46;;;;;;;17.27;2.67;;;8.70;99.90;;;;;;4910899;29;39157;-80
2023/04/11 02:49:12;;;;;;;13.50;2.27;;;8.60;99.90;;;;;;4899150;29;37640;-79
2023/04/11 02:51:39;;;;;;;17.90;2.60;;;8.70;99.90;;;;;;4895484;29;37019;-79
2023/04/11 02:54:06;;;;;;;21.00;2.47;;;8.70;99.90;;;;;;4885641;29;36957;-79
2023/04/11 02:56:33;;;;;;;19.03;3.00;;;8.70;99.90;;;;;;4894419;29;37918;-80
2023/04/11 02:58:59;;;;;;;17.37;2.53;;;8.70;99.90;;;;;;4897606;29;38497;-79
2023/04/11 03:01:26;;;;;;;15.67;3.03;;;8.80;99.90;;;;;;4900475;29;37348;-79
2023/04/11 03:03:52;;;;;;;18.23;2.97;;;8.70;99.90;;;;;;4900523;29;36682;-79
2023/04/11 03:06:18;;;;;;;15.73;2.73;;;8.80;99.90;;;;;;4926579;29;39339;-79
2023/04/11 03:08:45;;;;;;;14.13;2.50;;;8.80;99.90;;;;;;4905640;29;38233;-79
2023/04/11 03:11:11;;;;;;;12.53;2.67;;;8.80;99.90;;;;;;4920353;29;38392;-79
2023/04/11 03:13:38;;;;;;;20.33;2.50;;;8.80;99.90;;;;;;4898037;29;36161;-79
2023/04/11 03:16:05;;;;;;;20.47;2.40;;;8.80;99.90;;;;;;4896452;29;37730;-78
2023/04/11 03:18:31;;;;;;;19.17;2.63;;;8.70;99.90;;;;;;4905487;29;37893;-78
2023/04/11 03:20:57;;;;;;;17.87;2.60;;;8.70;99.90;;;;;;4906614;29;38299;-79
2023/04/11 03:23:24;;;;;;;20.43;2.87;;;8.70;99.90;;;;;;4910720;29;35729;-78
2023/04/11 03:25:50;;;;;;;22.03;2.90;;;8.70;99.90;;;;;;4905249;29;37854;-79
2023/04/11 03:28:16;;;;;;;19.10;2.30;;;8.70;99.90;;;;;;4904449;29;37655;-78
2023/04/11 03:30:43;;;;;;;10.77;1.43;;;8.60;99.90;;;;;;4893685;29;37111;-79
2023/04/11 03:33:09;;;;;;;16.20;2.03;;;8.60;99.90;;;;;;4911196;29;37254;-76
2023/04/11 03:35:36;;;;;;;11.53;2.07;;;8.60;99.90;;;;;;4895984;29;39380;-77
2023/04/11 03:38:02;;;;;;;16.80;1.87;;;8.60;99.90;;;;;;4910206;29;39296;-78
2023/04/11 03:40:28;;;;;;;16.30;1.87;;;8.50;99.90;;;;;;4898364;29;37473;-79
2023/04/11 03:42:55;;;;;;;20.67;3.03;;;8.50;99.90;;;;;;4894546;29;36175;-79
2023/04/11 03:45:21;;;;;;;14.17;2.17;;;8.50;99.90;;;;;;4894325;29;39087;-79
2023/04/11 03:47:47;;;;;;;23.67;2.60;;;8.50;99.90;;;;;;4896720;29;37647;-79
2023/04/11 03:50:13;;;;;;;13.83;2.23;;;8.40;99.90;;;;;;4897812;29;37163;-79
2023/04/11 03:52:39;;;;;;;14.57;2.53;;;8.40;99.90;;;;;;4891356;29;35921;-80
2023/04/11 03:55:06;;;;;;;12.23;2.10;;;8.40;99.90;;;;;;4910254;29;38752;-79
2023/04/11 03:57:32;;;;;;;17.77;2.27;;;8.40;99.90;;;;;;4891908;29;37791;-79
2023/04/11 03:59:58;;;;;;;12.50;1.90;;;8.40;99.90;;;;;;4896529;29;37502;-79
2023/04/11 04:02:24;;;;;;;13.67;1.70;;;8.40;99.90;;;;;;4898396;29;36179;-80
2023/04/11 04:04:54;;;;;;;19.47;2.47;;;8.30;99.90;;;;;;4914416;29;40706;-79
2023/04/11 04:07:21;;;;;;;15.10;1.47;;;8.30;99.90;;;;;;4905162;29;37924;-78
2023/04/11 04:09:47;;;;;;;13.37;1.70;;;8.20;99.90;;;;;;4907590;29;37360;-78
2023/04/11 04:12:13;;;;;;;12.63;1.73;;;8.30;99.90;;;;;;4906285;29;37699;-78
2023/04/11 04:14:39;;;;;;;22.63;2.43;;;8.20;99.90;;;;;;4912008;29;37819;-79
2023/04/11 04:17:05;;;;;;;14.63;1.97;;;8.30;99.90;;;;;;4888420;29;37580;-78
2023/04/11 04:19:31;;;;;;;9.63;2.10;;;8.20;99.90;;;;;;4895289;29;38828;-79
2023/04/11 04:21:58;;;;;;;17.47;2.43;;;8.20;99.90;;;;;;4906986;29;37373;-79
2023/04/11 04:24:28;;;;;;;9.60;2.10;;;8.10;99.90;;;;;;4908353;29;38581;-79
2023/04/11 04:26:59;;;;;;;12.23;2.13;;;8.00;99.90;;;;;;4905978;29;38040;-79
2023/04/11 04:29:32;;;;;;;15.93;2.77;;;8.00;99.90;;;;;;4909584;29;38571;-80
2023/04/11 04:32:00;;;;;;;14.97;2.43;;;8.00;99.90;;;;;;4903731;29;36335;-78
2023/04/11 04:34:27;;;;;;;16.87;2.67;;;8.00;99.90;;;;;;4899868;29;39097;-78
2023/04/11 04:36:58;;;;;;;19.47;2.83;;;8.00;99.90;;;;;;4919120;29;39014;-79
2023/04/11 04:39:24;;;;;;;12.50;1.67;;;8.10;99.90;;;;;;4891016;29;38667;-82
2023/04/11 04:42:00;;;;;;;16.47;2.60;;;8.00;99.90;;;;;;4907335;29;36005;-80
2023/04/11 04:44:27;;;;;;;15.30;3.00;;;8.10;99.90;;;;;;4907436;29;38069;-78
2023/04/11 04:46:54;;;;;;;18.07;2.40;;;8.10;99.90;;;;;;4909205;29;39129;-79
2023/04/11 04:49:20;;;;;;;16.27;2.87;;;8.10;99.90;;;;;;4906645;29;39089;-80
2023/04/11 04:51:46;;;;;;;13.00;2.20;;;8.20;99.90;;;;;;4896782;29;35919;-78
2023/04/11 04:54:13;;;;;;;15.60;2.60;;;8.30;99.90;;;;;;4895630;29;37988;-78
2023/04/11 04:56:40;;;;;;;23.10;3.10;;;8.40;99.90;;;;;;4907061;29;38025;-78
2023/04/11 04:59:07;;;;;;;14.93;2.30;;;8.30;99.90;;;;;;4912400;29;39082;-79
2023/04/11 05:01:33;;;;;;;13.73;2.50;;;8.40;99.90;;;;;;4893097;29;36251;-79
2023/04/11 05:04:00;;;;;;;14.80;3.10;;;8.40;99.90;;;;;;4890261;29;38606;-81
2023/04/11 05:06:30;;;;;;;18.30;2.40;;;8.40;99.90;;;;;;4895693;29;37410;-79
2023/04/11 05:09:01;;;;;;;17.57;2.50;;;8.40;99.90;;;;;;4911569;29;38746;-78
2023/04/11 05:11:28;;;;;;;20.37;3.43;;;8.40;99.90;;;;;;4909291;29;49669;-78
2023/04/11 05:13:54;;;;;;;19.00;2.90;;;8.30;99.90;;;;;;4890724;29;39177;-78
2023/04/11 05:16:21;;;;;;;16.93;2.60;;;8.30;99.90;;;;;;4905858;29;39227;-78
2023/04/11 05:18:50;;;;;;;16.00;2.73;;;8.40;99.90;;;;;;4888356;29;37783;-78
2023/04/11 05:21:16;;;;;;;20.70;3.43;;;8.50;99.90;;;;;;4857881;29;37420;-76
2023/04/11 05:23:42;;;;;;;19.13;2.33;;;8.60;99.90;;;;;;4877026;29;38887;-77
2023/04/11 05:26:09;;;;;;;16.87;2.57;;;8.70;99.90;;;;;;4878659;29;37934;-78
2023/04/11 05:28:35;;;;;;;12.43;2.67;;;8.70;99.90;;;;;;4870147;29;38804;-78
2023/04/11 05:31:01;;;;;;;16.30;2.93;;;8.90;99.90;;;;;;4874105;29;36607;-79
2023/04/11 05:33:28;;;;;;;16.53;2.90;;;8.90;99.90;;;;;;4892730;29;39298;-80
2023/04/11 05:35:54;;;;;;;13.00;2.60;;;9.00;99.90;;;;;;4896687;29;37813;-80
2023/04/11 05:38:20;;;;;;;19.63;3.10;;;9.00;99.90;;;;;;4891635;29;37451;-79
2023/04/11 05:40:46;;;;;;;22.70;3.73;;;9.00;99.90;;;;;;4894520;29;37819;-79
2023/04/11 05:43:13;;;;;;;19.57;3.07;;;9.00;99.90;;;;;;4894839;29;37523;-77
2023/04/11 05:45:41;;;;;;;19.77;2.53;;;9.00;99.90;;;;;;4891197;29;38673;-73
2023/04/11 05:48:07;;;;;;;19.33;3.00;;;9.00;99.90;;;;;;4878407;29;37444;-75
2023/04/11 05:50:35;;;;;;;15.50;2.60;;;9.10;99.90;;;;;;4907944;29;37076;-79
2023/04/11 05:53:04;;;;;;;16.33;2.90;;;9.10;99.90;;;;;;4918541;29;39119;-80
2023/04/11 05:55:30;;;;;;;21.00;3.37;;;9.00;99.90;;;;;;4895362;29;48587;-80
2023/04/11 05:58:09;;;;;;;16.90;2.77;;;9.10;99.90;;;;;;4901608;29;37954;-79
2023/04/11 06:00:39;;;;;;;23.77;4.63;;;9.00;99.90;;;;;;4893073;29;47485;-80
2023/04/11 06:03:17;;;;;;;19.20;3.33;;;9.10;99.90;;;;;;4906450;29;39989;-80
2023/04/11 06:05:43;;;;;;;18.90;3.13;;;9.20;99.90;;;;;;4897735;29;39922;-79
2023/04/11 06:08:10;;;;;;;18.53;3.07;;;9.20;99.90;;;;;;4901123;29;37103;-79
2023/04/11 06:10:36;;;;;;;13.20;2.97;;;9.20;99.90;;;;;;4899544;29;36590;-80
2023/04/11 06:13:04;;;;;;;18.10;2.90;;;9.10;99.90;;;;;;4903615;29;37768;-80
2023/04/11 06:15:30;;;;;;;15.73;2.63;;;9.10;99.90;;;;;;4913665;29;40463;-79
2023/04/11 06:17:56;;;;;;;18.50;2.63;;;9.10;99.90;;;;;;4897221;29;37497;-79
2023/04/11 06:20:23;;;;;;;16.37;2.37;;;9.20;99.90;;;;;;4897591;29;36100;-81
2023/04/11 06:22:50;;;;;;;16.60;2.50;;;9.40;99.90;;;;;;4902725;29;39177;-80
2023/04/11 06:25:18;;;;;;;13.80;2.23;;;9.60;99.90;;;;;;4897399;29;37950;-80
2023/04/11 06:27:45;;;;;;;14.80;2.23;;;9.60;99.90;;;;;;4917653;29;38839;-80
2023/04/11 06:30:12;;;;;;;14.00;2.57;;;9.60;99.90;;;;;;4904375;29;37378;-80
2023/04/11 06:32:42;;;;;;;18.67;3.53;;;9.50;99.90;;;;;;4901281;29;38229;-80
2023/04/11 06:35:08;;;;;;;23.33;2.90;;;9.40;99.90;;;;;;4913058;29;39471;-80
2023/04/11 06:37:41;;;;;;;22.33;3.00;;;9.40;99.90;;;;;;4907675;29;40037;-80
2023/04/11 06:40:08;;;;;;;23.88;3.70;;;9.30;99.90;;;;;;4900650;29;34732;-78
2023/04/11 06:42:34;;;;;;;18.00;2.97;;;9.30;99.90;;;;;;4909575;29;38709;-80
2023/04/11 06:45:00;;;;;;;23.20;3.27;;;9.30;99.90;;;;;;4885474;29;39310;-79
2023/04/11 06:47:26;;;;;;;15.63;2.67;;;9.30;99.90;;;;;;4873260;29;37261;-79
2023/04/11 06:49:53;;;;;;;16.33;2.53;;;9.40;99.90;;;;;;4875529;29;39135;-78
2023/04/11 06:52:19;;;;;;;11.30;2.50;;;9.40;99.90;;;;;;4882247;29;37627;-80
2023/04/11 06:54:46;;;;;;;15.10;2.37;;;9.50;99.90;;;;;;4910889;29;39292;-80
2023/04/11 06:57:12;;;;;;;14.07;3.50;;;9.40;99.90;;;;;;4913791;29;38613;-79
2023/04/11 06:59:39;;;;;;;16.20;2.03;;;9.40;99.90;;;;;;4916514;29;35946;-79
2023/04/11 07:02:05;;;;;;;15.83;2.03;;;9.40;99.90;;;;;;4891100;29;37629;-79
2023/04/11 07:04:31;;;;;;;10.97;2.33;;;9.40;99.90;;;;;;4908255;29;38710;-80
2023/04/11 07:06:57;;;;;;;11.97;2.20;;;9.40;99.90;;;;;;4887490;29;37008;-79
2023/04/11 07:09:23;;;;;;;19.97;2.90;;;9.40;99.90;;;;;;4901390;29;37035;-80
2023/04/11 07:11:49;;;;;;;12.60;2.13;;;9.50;99.90;;;;;;4888626;29;40475;-80
2023/04/11 07:14:15;;;;;;;18.53;2.60;;;9.60;99.90;;;;;;4895031;29;37729;-80
2023/04/11 07:16:42;;;;;;;16.03;2.57;;;9.60;99.90;;;;;;4891795;29;37275;-80
2023/04/11 07:19:08;;;;;;;18.30;2.55;;;9.80;99.90;;;;;;4881869;29;37003;-80
2023/04/11 07:21:36;;;;;;;18.40;3.13;;;9.90;99.90;;;;;;4868969;29;37666;-75
2023/04/11 07:24:03;;;;;;;16.85;3.22;;;10.00;99.90;;;;;;4889932;29;39837;-76
2023/04/11 07:26:31;;;;;;;14.65;2.30;;;10.20;99.90;;;;;;4870950;29;37430;-77
2023/04/11 07:28:58;;;;;;;19.30;3.05;;;10.30;99.90;;;;;;4892886;29;37400;-76
2023/04/11 07:31:26;;;;;;;24.98;3.78;;;10.30;99.90;;;;;;4893573;29;38828;-77
2023/04/11 07:33:52;;;;;;;17.00;3.55;;;10.20;99.90;;;;;;4895250;29;37529;-80
2023/04/11 07:36:18;;;;;;;15.20;2.40;;;10.20;99.90;;;;;;4891802;29;39089;-79
2023/04/11 07:38:44;;;;;;;12.23;3.30;;;10.20;99.90;;;;;;4880564;29;37041;-80
2023/04/11 07:41:10;;;;;;;21.08;2.63;;;10.40;99.90;;;;;;4896818;29;39093;-79
2023/04/11 07:43:36;;;;;;;19.38;2.38;;;10.40;99.90;;;;;;4888741;29;38917;-79
2023/04/11 07:46:02;;;;;;;19.90;2.97;;;10.40;99.90;;;;;;4878002;29;38624;-79
2023/04/11 07:48:30;;;;;;;18.38;2.60;;;10.40;99.90;;;;;;4901559;29;37463;-79
2023/04/11 07:50:56;;;;;;;17.23;2.63;;;10.50;99.90;;;;;;4906110;29;38914;-78
2023/04/11 07:53:23;;;;;;;14.63;2.75;;;10.30;99.90;;;;;;4901235;29;37929;-79
2023/04/11 07:55:49;;;;;;;13.93;2.05;;;10.20;99.90;;;;;;4899761;29;38521;-79
2023/04/11 07:58:15;;;;;;;14.52;2.20;;;10.20;99.90;;;;;;4907621;29;38060;-79
2023/04/11 08:00:41;;;;;;;18.20;2.90;;;10.30;99.90;;;;;;4902277;29;39728;-79
2023/04/11 08:03:10;;;;;;;22.35;3.65;;;10.50;99.90;;;;;;4906862;29;39936;-79
2023/04/11 08:05:36;;;;;;;11.55;2.65;;;10.50;99.90;;;;;;4881000;29;37419;-80
2023/04/11 08:08:03;;;;;;;17.90;3.05;;;10.40;99.90;;;;;;4897767;29;37350;-77
2023/04/11 08:10:29;;;;;;;10.77;2.70;;;10.40;99.90;;;;;;4888945;29;38247;-77
2023/04/11 08:12:57;;;;;;;12.02;2.40;;;10.50;99.90;;;;;;4878070;29;37373;-77
2023/04/11 08:15:26;;;;;;;13.20;2.85;;;10.50;99.90;;;;;;4892066;29;38660;-78
2023/04/11 08:17:55;;;;;;;13.40;1.85;;;10.40;99.90;;;;;;4899502;29;37191;-78
2023/04/11 08:20:23;;;;;;;13.90;2.35;;;10.40;99.90;;;;;;4891277;29;37735;-78
2023/04/11 08:22:49;;;;;;;14.93;2.50;;;10.60;99.90;;;;;;4891066;29;38280;-77
2023/04/11 08:25:21;;;;;;;15.88;2.35;;;10.80;99.90;;;;;;4890287;29;38486;-77
2023/04/11 08:27:48;;;;;;;15.48;2.58;;;10.70;99.90;;;;;;4878068;29;36099;-79
2023/04/11 08:30:15;;;;;;;11.10;2.03;;;10.80;99.90;;;;;;4898130;29;38727;-79
2023/04/11 08:32:42;;;;;;;14.85;2.83;;;11.00;99.90;;;;;;4887024;29;37218;-79
2023/04/11 08:35:08;;;;;;;16.20;3.00;;;11.30;99.90;;;;;;4886013;29;37638;-78
2023/04/11 08:37:34;;;;;;;14.05;2.05;;;11.30;99.90;;;;;;4884650;29;36486;-78
2023/04/11 08:40:01;;;;;;;21.20;2.92;;;11.00;99.90;;;;;;4886237;29;39866;-80
2023/04/11 08:42:29;;;;;;;12.05;2.70;;;11.00;99.90;;;;;;4885010;29;38762;-79
2023/04/11 08:45:00;;;;;;;15.32;2.33;;;11.00;99.90;;;;;;4900128;29;38848;-79
2023/04/11 08:47:27;;;;;;;11.27;1.97;;;10.80;99.90;;;;;;4892824;29;37021;-79
2023/04/11 08:49:53;;;;;;;13.68;2.45;;;10.70;99.90;;;;;;4895583;29;38790;-78
2023/04/11 08:52:20;;;;;;;13.88;1.92;;;10.90;99.90;;;;;;4900610;29;39537;-78
2023/04/11 08:54:47;;;;;;;10.25;1.75;;;10.90;99.90;;;;;;4878998;29;38830;-78
2023/04/11 08:57:32;;;;;;;10.85;2.08;;;11.10;99.90;;;;;;4897274;29;38118;-78
2023/04/11 09:00:07;;;;;;;11.90;2.55;;;11.40;99.90;;;;;;4898790;29;38536;-79
2023/04/11 09:02:33;;;;;;;13.57;1.83;;;11.60;99.90;;;;;;4900972;29;38928;-79
2023/04/11 09:04:59;;;;;;;14.45;2.28;;;11.90;99.90;;;;;;4896271;29;39088;-80
2023/04/11 09:07:25;;;;;;;11.80;2.45;;;11.90;99.90;;;;;;4891790;29;38940;-80
2023/04/11 09:09:52;;;;;;;14.80;2.30;;;12.00;99.90;;;;;;4908329;29;38695;-79
2023/04/11 09:12:27;;;;;;;15.88;2.33;;;12.20;99.90;;;;;;4907722;29;39501;-79
2023/04/11 09:14:54;;;;;;;7.57;1.35;;;12.20;99.90;;;;;;4883851;29;36545;-78
2023/04/11 09:17:20;;;;;;;13.32;1.88;;;12.10;99.90;;;;;;4881786;29;37480;-79
2023/04/11 09:19:46;;;;;;;9.68;1.85;;;12.30;99.90;;;;;;4888285;29;37698;-78
2023/04/11 09:22:14;;;;;;;13.60;2.83;;;12.60;99.90;;;;;;4875902;29;37628;-77
2023/04/11 09:24:41;;;;;;;10.80;1.60;;;12.30;99.90;;;;;;4874656;29;37454;-79
2023/04/11 09:27:08;;;;;;;13.70;2.38;;;12.20;99.90;;;;;;4890214;29;36897;-78
2023/04/11 09:29:38;;;;;;;13.80;2.50;;;12.40;99.90;;;;;;4879002;29;37898;-79
2023/04/11 09:32:05;;;;;;;10.35;1.95;;;12.50;99.90;;;;;;4876281;29;39412;-79
2023/04/11 09:34:36;;;;;;;15.05;2.40;;;12.80;99.90;;;;;;4875419;29;37631;-77
2023/04/11 09:37:03;;;;;;;7.95;2.35;;;12.60;99.90;;;;;;4897568;29;37816;-78
2023/04/11 09:39:31;;;;;;;9.20;1.85;;;12.50;99.90;;;;;;4882763;29;37786;-79
2023/04/11 09:41:57;;;;;;;8.90;1.60;;;12.30;99.90;;;;;;4882616;29;38601;-78
2023/04/11 09:44:36;;;;;;;10.25;1.58;;;12.30;99.90;;;;;;4898113;29;38116;-79
2023/04/11 09:47:03;;;;;;;15.60;1.92;;;12.40;99.90;;;;;;4881296;29;37387;-78
2023/04/11 09:49:30;;;;;;;9.18;1.90;;;12.40;99.90;;;;;;4879218;29;38956;-78
2023/04/11 09:51:59;;;;;;;12.45;1.77;;;12.30;99.90;;;;;;4879484;29;38876;-79
2023/04/11 09:54:27;;;;;;;12.40;1.45;;;12.20;99.90;;;;;;4882268;29;37384;-78
2023/04/11 09:56:53;;;;;;;8.18;1.98;;;12.10;99.90;;;;;;4884854;29;36276;-79
2023/04/11 09:59:20;;;;;;;14.15;2.10;;;12.40;99.90;;;;;;4881376;29;39428;-80
2023/04/11 10:01:49;;;;;;;5.95;1.80;;;12.30;99.90;;;;;;4904773;29;39471;-77
2023/04/11 10:04:15;;;;;;;13.45;2.20;;;12.50;99.90;;;;;;4897782;29;38414;-77
2023/04/11 10:07:13;;;;;;;8.13;1.80;;;12.10;99.90;;;;;;4884209;29;36559;-78
2023/04/11 10:09:44;;;;;;;12.48;2.50;;;12.00;99.90;;;;;;4891984;29;47030;-78
2023/04/11 10:12:11;;;;;;;7.57;1.63;;;12.00;99.90;;;;;;4893993;29;38038;-78
2023/04/11 10:14:37;;;;;;;10.80;2.05;;;12.00;99.90;;;;;;4899919;29;38470;-78
2023/04/11 10:17:17;;;;;;;11.20;2.13;;;12.30;99.90;;;;;;4901762;29;37558;-79
2023/04/11 10:19:44;;;;;;;12.50;2.47;;;12.30;99.90;;;;;;4895184;29;38518;-78
2023/04/11 10:22:42;;;;;;;14.25;2.50;;;12.50;99.90;;;;;;4889113;29;38072;-80
2023/04/11 10:25:19;;;;;;;11.32;2.00;;;12.70;99.90;;;;;;4879639;29;39195;-75
2023/04/11 10:27:52;;;;;;;12.75;2.60;;;12.70;99.90;;;;;;4879305;29;36341;-79
2023/04/11 10:30:38;;;;;;;16.05;2.75;;;13.00;99.90;;;;;;4882413;29;37357;-80
2023/04/11 10:33:16;;;;;;;14.32;2.40;;;12.90;99.90;;;;;;4886164;29;38259;-78
2023/04/11 10:36:08;;;;;;;10.68;2.13;;;12.90;99.90;;;;;;4917238;29;36223;-80
2023/04/11 10:38:42;;;;;;;13.38;2.58;;;12.90;99.90;;;;;;4907174;29;49071;-80
2023/04/11 10:41:27;;;;;;;11.93;2.50;;;13.60;99.90;;;;;;4912724;29;40243;-78
2023/04/11 10:44:19;;;;;;;8.30;1.98;;;14.00;99.90;;;;;;4882051;29;38267;-78
2023/04/11 10:46:53;;;;;;;9.00;2.88;;;13.90;99.90;;;;;;4909444;29;50409;-79
2023/04/11 10:49:36;;;;;;;13.18;2.17;;;13.80;99.90;;;;;;4906920;29;37988;-78
2023/04/11 10:52:22;;;;;;;19.00;3.13;;;14.00;99.90;;;;;;4886674;29;38812;-79
2023/04/11 10:54:50;;;;;;;12.80;2.47;;;14.20;99.90;;;;;;4890589;29;39470;-75
2023/04/11 10:57:16;;;;;;;16.08;2.03;;;14.20;99.90;;;;;;4869394;29;38548;-77
2023/04/11 10:59:48;;;;;;;16.25;2.97;;;14.40;99.90;;;;;;4884985;29;38741;-76
2023/04/11 11:02:15;;;;;;;10.35;2.25;;;14.30;99.90;;;;;;4881507;29;38447;-78
2023/04/11 11:04:41;;;;;;;19.30;2.92;;;13.70;99.90;;;;;;4882404;29;38982;-77
2023/04/11 11:07:13;;;;;;;9.00;2.25;;;13.00;99.90;;;;;;4882714;29;38586;-79
2023/04/11 11:09:39;;;;;;;18.80;2.67;;;12.80;99.90;;;;;;4874093;29;35705;-77
2023/04/11 11:12:13;;;;;;;11.90;2.08;;;12.90;99.90;;;;;;4895675;29;38595;-78
2023/04/11 11:14:44;;;;;;;11.15;2.25;;;13.30;99.90;;;;;;4885934;29;37147;-78
2023/04/11 11:17:11;;;;;;;12.52;1.92;;;14.00;99.90;;;;;;4897385;29;37025;-82
2023/04/11 11:19:46;;;;;;;10.63;2.53;;;14.60;99.90;;;;;;4892940;29;37422;-82
2023/04/11 11:22:16;;;;;;;11.60;2.75;;;14.60;99.90;;;;;;4886435;29;39269;-86
2023/04/11 11:24:42;;;;;;;12.90;2.22;;;14.30;99.90;;;;;;4899054;29;38788;-79
2023/04/11 11:27:23;;;;;;;16.85;2.28;;;14.50;99.90;;;;;;4884634;29;37039;-80
2023/04/11 11:29:50;;;;;;;13.13;2.83;;;14.80;99.90;;;;;;4879320;29;36524;-80
2023/04/11 11:32:26;;;;;;;14.65;2.85;;;15.30;99.90;;;;;;4875641;29;38024;-79
2023/04/11 11:34:54;;;;;;;11.60;2.22;;;15.10;99.90;;;;;;4893748;29;38549;-81
2023/04/11 11:37:20;;;;;;;7.50;1.67;;;15.00;99.90;;;;;;4891920;29;38310;-82
2023/04/11 11:39:48;;;;;;;11.80;2.45;;;14.80;99.90;;;;;;4897012;29;37430;-80
2023/04/11 11:42:14;;;;;;;8.52;1.80;;;15.20;99.90;;;;;;4893362;29;37629;-80
2023/04/11 11:44:40;;;;;;;16.98;2.63;;;15.00;99.90;;;;;;4900967;29;40048;-81
2023/04/11 11:47:08;;;;;;;9.82;2.33;;;14.90;99.90;;;;;;4868818;29;37569;-83
2023/04/11 11:49:47;;;;;;;12.57;2.78;;;14.90;99.90;;;;;;4889346;29;37548;-79
2023/04/11 11:52:32;;;;;;;8.27;1.50;;;14.90;99.90;;;;;;4889774;29;37602;-78
2023/04/11 11:55:04;;;;;;;7.13;1.70;;;14.80;99.90;;;;;;4908017;29;39424;-78
2023/04/11 11:57:31;;;;;;;8.20;1.85;;;14.70;99.90;;;;;;4874857;29;47149;-78
2023/04/11 12:00:00;;;;;;;9.82;1.83;;;14.50;99.90;;;;;;4896304;29;37048;-78
2023/04/11 12:02:26;;;;;;;8.50;1.50;;;14.80;99.90;;;;;;4899797;29;38580;-78
2023/04/11 12:05:04;;;;;;;6.72;1.48;;;14.60;99.90;;;;;;4893396;29;38767;-77
2023/04/11 12:07:35;;;;;;;12.52;2.17;;;14.50;99.90;;;;;;4892549;29;48464;-78
2023/04/11 12:10:21;;;;;;;10.00;2.38;;;14.50;99.90;;;;;;4896086;29;36271;-77
2023/04/11 12:12:49;;;;;;;9.13;2.45;;;14.70;99.90;;;;;;4892522;29;48375;-78
2023/04/11 12:15:20;;;;;;;11.50;1.63;;;14.70;99.90;;;;;;4893304;29;38809;-78
2023/04/11 12:17:51;;;;;;;8.20;1.80;;;15.10;99.90;;;;;;4887687;29;37567;-77
2023/04/11 12:20:26;;;;;;;11.88;1.90;;;15.30;99.90;;;;;;4881945;29;37406;-80
2023/04/11 12:22:53;;;;;;;7.93;1.88;;;15.20;99.90;;;;;;4903664;29;38078;-83
2023/04/11 12:25:20;;;;;;;8.48;1.88;;;15.30;99.90;;;;;;4883462;29;37678;-84
2023/04/11 12:27:47;;;;;;;9.32;2.15;;;15.30;99.90;;;;;;4899955;29;38386;-80
2023/04/11 12:30:14;;;;;;;10.93;1.90;;;14.70;99.90;;;;;;4894686;29;37004;-80
2023/04/11 12:32:40;;;;;;;8.85;1.70;;;14.90;99.90;;;;;;4901229;29;38628;-79
2023/04/11 12:35:07;;;;;;;9.25;1.40;;;14.60;99.90;;;;;;4880949;29;37675;-80
2023/04/11 12:37:33;;;;;;;12.23;2.10;;;14.70;99.90;;;;;;4894052;29;37302;-81
2023/04/11 12:40:00;;;;;;;11.02;1.40;;;14.80;99.90;;;;;;4891234;29;37010;-82
2023/04/11 12:42:27;;;;;;;9.63;2.10;;;15.10;99.90;;;;;;4895445;29;38330;-78
2023/04/11 12:44:53;;;;;;;9.35;1.50;;;15.50;99.90;;;;;;4883181;29;38959;-80
2023/04/11 12:47:19;;;;;;;7.68;1.92;;;15.50;99.90;;;;;;4894939;29;37221;-79
2023/04/11 12:49:45;;;;;;;9.27;1.58;;;15.60;99.90;;;;;;4876525;29;37245;-80